sensor_id;sensor_type;location;lat;lon;timestamp;temperature;humidity
21722;DHT22;11023;48.274;7.794;2023-01-08T00:01:34;9.70;99.90
21722;DHT22;11023;48.274;7.794;2023-01-08T00:04:00;9.80;99.90
21722;DHT22;11023;48.274;7.794;2023-01-08T00:06:26;9.70;99.90
21722;DHT22;11023;48.274;7.794;2023-01-08T00:08:52;9.80;99.90
21722;DHT22;11023;48.274;7.794;2023-01-08T00:11:18;9.80;99.90
21722;DHT22;11023;48.274;7.794;2023-01-08T00:13:43;9.70;99.90
21722;DHT22;11023;48.274;7.794;2023-01-08T00:16:12;9.80;99.90
21722;DHT22;11023;48.274;7.794;2023-01-08T00:18:38;9.80;99.90
21722;DHT22;11023;48.274;7.794;2023-01-08T00:21:04;9.80;99.90
21722;DHT22;11023;48.274;7.794;2023-01-08T00:23:30;9.80;99.90
21722;DHT22;11023;48.274;7.794;2023-01-08T00:25:56;9.80;99.90
21722;DHT22;11023;48.274;7.794;2023-01-08T00:28:22;9.80;99.90
21722;DHT22;11023;48.274;7.794;2023-01-08T00:30:47;9.80;99.90
21722;DHT22;11023;48.274;7.794;2023-01-08T00:33:13;9.90;99.90
21722;DHT22;11023;48.274;7.794;2023-01-08T00:35:40;9.80;99.90
21722;DHT22;11023;48.274;7.794;2023-01-08T00:38:05;9.80;99.90
21722;DHT22;11023;48.274;7.794;2023-01-08T00:40:35;9.90;99.90
21722;DHT22;11023;48.274;7.794;2023-01-08T00:43:01;9.90;99.90
21722;DHT22;11023;48.274;7.794;2023-01-08T00:45:26;9.90;99.90
21722;DHT22;11023;48.274;7.794;2023-01-08T00:47:52;10.00;99.90
21722;DHT22;11023;48.274;7.794;2023-01-08T00:50:18;10.10;99.90
21722;DHT22;11023;48.274;7.794;2023-01-08T00:52:43;10.10;99.90
21722;DHT22;11023;48.274;7.794;2023-01-08T00:55:09;10.20;99.90
21722;DHT22;11023;48.274;7.794;2023-01-08T00:57:36;10.30;99.90
21722;DHT22;11023;48.274;7.794;2023-01-08T01:00:04;10.40;99.90
21722;DHT22;11023;48.274;7.794;2023-01-08T01:02:31;10.40;99.90
21722;DHT22;11023;48.274;7.794;2023-01-08T01:04:56;10.50;99.90
21722;DHT22;11023;48.274;7.794;2023-01-08T01:07:22;10.50;99.90
21722;DHT22;11023;48.274;7.794;2023-01-08T01:09:48;10.50;99.90
21722;DHT22;11023;48.274;7.794;2023-01-08T01:12:13;10.50;99.90
21722;DHT22;11023;48.274;7.794;2023-01-08T01:14:39;10.50;99.90
21722;DHT22;11023;48.274;7.794;2023-01-08T01:17:05;10.50;99.90
21722;DHT22;11023;48.274;7.794;2023-01-08T01:19:30;10.60;99.90
21722;DHT22;11023;48.274;7.794;2023-01-08T01:21:56;10.50;99.90
21722;DHT22;11023;48.274;7.794;2023-01-08T01:24:22;10.60;99.90
21722;DHT22;11023;48.274;7.794;2023-01-08T01:26:53;10.60;99.90
21722;DHT22;11023;48.274;7.794;2023-01-08T01:29:21;10.60;99.90
21722;DHT22;11023;48.274;7.794;2023-01-08T01:31:47;10.60;99.90
21722;DHT22;11023;48.274;7.794;2023-01-08T01:34:13;10.70;99.90
21722;DHT22;11023;48.274;7.794;2023-01-08T01:36:38;10.70;99.90
21722;DHT22;11023;48.274;7.794;2023-01-08T01:39:04;10.70;99.90
21722;DHT22;11023;48.274;7.794;2023-01-08T01:41:42;10.70;99.90
21722;DHT22;11023;48.274;7.794;2023-01-08T01:44:42;10.70;99.90
21722;DHT22;11023;48.274;7.794;2023-01-08T01:47:19;10.80;99.90
21722;DHT22;11023;48.274;7.794;2023-01-08T01:52:24;10.90;99.90
21722;DHT22;11023;48.274;7.794;2023-01-08T01:54:52;11.00;99.90
21722;DHT22;11023;48.274;7.794;2023-01-08T01:57:18;11.00;99.90
21722;DHT22;11023;48.274;7.794;2023-01-08T01:59:46;11.00;99.90
21722;DHT22;11023;48.274;7.794;2023-01-08T02:02:12;11.10;99.90
21722;DHT22;11023;48.274;7.794;2023-01-08T02:04:38;11.10;99.90
21722;DHT22;11023;48.274;7.794;2023-01-08T02:07:14;11.30;99.90
21722;DHT22;11023;48.274;7.794;2023-01-08T02:09:51;11.30;99.90
21722;DHT22;11023;48.274;7.794;2023-01-08T02:12:43;11.30;99.90
21722;DHT22;11023;48.274;7.794;2023-01-08T02:15:14;11.40;99.90
21722;DHT22;11023;48.274;7.794;2023-01-08T02:23:59;11.40;99.90
21722;DHT22;11023;48.274;7.794;2023-01-08T02:26:12;11.40;99.90
21722;DHT22;11023;48.274;7.794;2023-01-08T02:31:08;11.50;99.90
21722;DHT22;11023;48.274;7.794;2023-01-08T02:33:34;11.60;99.90
21722;DHT22;11023;48.274;7.794;2023-01-08T02:42:50;11.80;99.90
21722;DHT22;11023;48.274;7.794;2023-01-08T02:45:57;11.80;99.90
21722;DHT22;11023;48.274;7.794;2023-01-08T02:48:45;11.90;99.90
21722;DHT22;11023;48.274;7.794;2023-01-08T02:51:27;11.90;99.90
21722;DHT22;11023;48.274;7.794;2023-01-08T02:54:00;11.90;99.90
21722;DHT22;11023;48.274;7.794;2023-01-08T02:56:30;12.00;99.90
21722;DHT22;11023;48.274;7.794;2023-01-08T02:58:57;12.00;99.90
21722;DHT22;11023;48.274;7.794;2023-01-08T03:01:25;11.90;99.90
21722;DHT22;11023;48.274;7.794;2023-01-08T03:03:58;11.80;99.90
21722;DHT22;11023;48.274;7.794;2023-01-08T03:06:25;11.80;99.90
21722;DHT22;11023;48.274;7.794;2023-01-08T03:08:54;11.80;99.90
21722;DHT22;11023;48.274;7.794;2023-01-08T03:11:21;11.80;99.90
21722;DHT22;11023;48.274;7.794;2023-01-08T03:13:59;11.80;99.90
21722;DHT22;11023;48.274;7.794;2023-01-08T03:16:32;11.70;99.90
21722;DHT22;11023;48.274;7.794;2023-01-08T03:19:15;11.70;99.90
21722;DHT22;11023;48.274;7.794;2023-01-08T03:21:44;11.70;99.90
21722;DHT22;11023;48.274;7.794;2023-01-08T03:24:19;11.60;99.90
21722;DHT22;11023;48.274;7.794;2023-01-08T03:26:47;11.60;99.90
21722;DHT22;11023;48.274;7.794;2023-01-08T03:29:17;11.50;99.90
21722;DHT22;11023;48.274;7.794;2023-01-08T03:31:46;11.40;99.90
21722;DHT22;11023;48.274;7.794;2023-01-08T03:34:13;11.30;99.90
21722;DHT22;11023;48.274;7.794;2023-01-08T03:36:44;11.20;99.90
21722;DHT22;11023;48.274;7.794;2023-01-08T03:39:36;11.20;99.90
21722;DHT22;11023;48.274;7.794;2023-01-08T03:42:07;11.10;99.90
21722;DHT22;11023;48.274;7.794;2023-01-08T03:44:34;11.00;99.90
21722;DHT22;11023;48.274;7.794;2023-01-08T03:47:02;10.90;99.90
21722;DHT22;11023;48.274;7.794;2023-01-08T03:49:29;10.80;99.90
21722;DHT22;11023;48.274;7.794;2023-01-08T03:51:57;10.70;99.90
21722;DHT22;11023;48.274;7.794;2023-01-08T03:54:27;10.80;99.90
21722;DHT22;11023;48.274;7.794;2023-01-08T03:56:54;10.80;99.90
21722;DHT22;11023;48.274;7.794;2023-01-08T03:59:20;10.80;99.90
21722;DHT22;11023;48.274;7.794;2023-01-08T04:01:46;10.80;99.90
21722;DHT22;11023;48.274;7.794;2023-01-08T04:04:12;10.80;99.90
21722;DHT22;11023;48.274;7.794;2023-01-08T04:06:38;10.80;99.90
21722;DHT22;11023;48.274;7.794;2023-01-08T04:09:03;10.90;99.90
21722;DHT22;11023;48.274;7.794;2023-01-08T04:11:29;10.80;99.90
21722;DHT22;11023;48.274;7.794;2023-01-08T04:13:55;10.80;99.90
21722;DHT22;11023;48.274;7.794;2023-01-08T04:16:22;10.70;99.90
21722;DHT22;11023;48.274;7.794;2023-01-08T04:18:49;10.60;99.90
21722;DHT22;11023;48.274;7.794;2023-01-08T04:21:15;10.60;99.90
21722;DHT22;11023;48.274;7.794;2023-01-08T04:23:41;10.50;99.90
21722;DHT22;11023;48.274;7.794;2023-01-08T04:26:07;10.50;99.90
21722;DHT22;11023;48.274;7.794;2023-01-08T04:28:33;10.40;99.90
21722;DHT22;11023;48.274;7.794;2023-01-08T04:31:07;10.40;99.90
21722;DHT22;11023;48.274;7.794;2023-01-08T04:33:34;10.40;99.90
21722;DHT22;11023;48.274;7.794;2023-01-08T04:36:00;10.20;99.90
21722;DHT22;11023;48.274;7.794;2023-01-08T04:38:26;10.20;99.90
21722;DHT22;11023;48.274;7.794;2023-01-08T04:40:56;10.20;99.90
21722;DHT22;11023;48.274;7.794;2023-01-08T04:43:23;10.10;99.90
21722;DHT22;11023;48.274;7.794;2023-01-08T04:45:48;10.10;99.90
21722;DHT22;11023;48.274;7.794;2023-01-08T04:48:14;10.10;99.90
21722;DHT22;11023;48.274;7.794;2023-01-08T04:50:40;10.10;99.90
21722;DHT22;11023;48.274;7.794;2023-01-08T04:53:06;10.00;99.90
21722;DHT22;11023;48.274;7.794;2023-01-08T04:55:32;10.00;99.90
21722;DHT22;11023;48.274;7.794;2023-01-08T04:57:58;10.00;99.90
21722;DHT22;11023;48.274;7.794;2023-01-08T05:00:24;10.00;99.90
21722;DHT22;11023;48.274;7.794;2023-01-08T05:02:49;10.00;99.90
21722;DHT22;11023;48.274;7.794;2023-01-08T05:05:15;9.90;99.90
21722;DHT22;11023;48.274;7.794;2023-01-08T05:07:41;9.90;99.90
21722;DHT22;11023;48.274;7.794;2023-01-08T05:10:07;9.90;99.90
21722;DHT22;11023;48.274;7.794;2023-01-08T05:12:33;9.90;99.90
21722;DHT22;11023;48.274;7.794;2023-01-08T05:14:59;9.90;99.90
21722;DHT22;11023;48.274;7.794;2023-01-08T05:17:25;9.90;99.90
21722;DHT22;11023;48.274;7.794;2023-01-08T05:19:50;9.80;99.90
21722;DHT22;11023;48.274;7.794;2023-01-08T05:22:16;9.90;99.90
21722;DHT22;11023;48.274;7.794;2023-01-08T05:24:42;9.80;99.90
21722;DHT22;11023;48.274;7.794;2023-01-08T05:27:09;9.80;99.90
21722;DHT22;11023;48.274;7.794;2023-01-08T05:29:35;9.80;99.90
21722;DHT22;11023;48.274;7.794;2023-01-08T05:32:01;9.70;99.90
21722;DHT22;11023;48.274;7.794;2023-01-08T05:34:26;9.80;99.90
21722;DHT22;11023;48.274;7.794;2023-01-08T05:36:52;9.80;99.90
21722;DHT22;11023;48.274;7.794;2023-01-08T05:39:18;9.80;99.90
21722;DHT22;11023;48.274;7.794;2023-01-08T05:41:45;9.80;99.90
21722;DHT22;11023;48.274;7.794;2023-01-08T05:44:11;9.80;99.90
21722;DHT22;11023;48.274;7.794;2023-01-08T05:46:36;9.90;99.90
21722;DHT22;11023;48.274;7.794;2023-01-08T05:49:02;9.90;99.90
21722;DHT22;11023;48.274;7.794;2023-01-08T05:51:28;9.90;99.90
21722;DHT22;11023;48.274;7.794;2023-01-08T05:53:54;9.90;99.90
21722;DHT22;11023;48.274;7.794;2023-01-08T05:56:22;9.90;99.90
21722;DHT22;11023;48.274;7.794;2023-01-08T05:58:47;10.00;99.90
21722;DHT22;11023;48.274;7.794;2023-01-08T06:01:14;10.00;99.90
21722;DHT22;11023;48.274;7.794;2023-01-08T06:03:42;10.00;99.90
21722;DHT22;11023;48.274;7.794;2023-01-08T06:06:09;10.00;99.90
21722;DHT22;11023;48.274;7.794;2023-01-08T06:08:35;10.00;99.90
21722;DHT22;11023;48.274;7.794;2023-01-08T06:11:03;10.00;99.90
21722;DHT22;11023;48.274;7.794;2023-01-08T06:13:31;10.00;99.90
21722;DHT22;11023;48.274;7.794;2023-01-08T06:15:58;10.00;99.90
21722;DHT22;11023;48.274;7.794;2023-01-08T06:18:27;10.00;99.90
21722;DHT22;11023;48.274;7.794;2023-01-08T06:20:53;9.90;99.90
21722;DHT22;11023;48.274;7.794;2023-01-08T06:23:19;10.00;99.90
21722;DHT22;11023;48.274;7.794;2023-01-08T06:25:51;9.90;99.90
21722;DHT22;11023;48.274;7.794;2023-01-08T06:28:18;10.00;99.90
21722;DHT22;11023;48.274;7.794;2023-01-08T06:30:44;10.00;99.90
21722;DHT22;11023;48.274;7.794;2023-01-08T06:33:10;9.90;99.90
21722;DHT22;11023;48.274;7.794;2023-01-08T06:35:36;10.00;99.90
21722;DHT22;11023;48.274;7.794;2023-01-08T06:38:01;10.00;99.90
21722;DHT22;11023;48.274;7.794;2023-01-08T06:40:27;10.10;99.90
21722;DHT22;11023;48.274;7.794;2023-01-08T06:42:53;10.10;99.90
21722;DHT22;11023;48.274;7.794;2023-01-08T06:45:19;10.10;99.90
21722;DHT22;11023;48.274;7.794;2023-01-08T06:47:44;10.10;99.90
21722;DHT22;11023;48.274;7.794;2023-01-08T06:50:10;10.20;99.90
21722;DHT22;11023;48.274;7.794;2023-01-08T06:52:37;10.10;99.90
21722;DHT22;11023;48.274;7.794;2023-01-08T06:55:04;10.20;99.90
21722;DHT22;11023;48.274;7.794;2023-01-08T06:57:31;10.10;99.90
21722;DHT22;11023;48.274;7.794;2023-01-08T06:59:57;10.20;99.90
21722;DHT22;11023;48.274;7.794;2023-01-08T07:02:22;10.20;99.90
21722;DHT22;11023;48.274;7.794;2023-01-08T07:04:48;10.20;99.90
21722;DHT22;11023;48.274;7.794;2023-01-08T07:07:14;10.10;99.90
21722;DHT22;11023;48.274;7.794;2023-01-08T07:09:41;10.10;99.90
21722;DHT22;11023;48.274;7.794;2023-01-08T07:12:12;10.20;99.90
21722;DHT22;11023;48.274;7.794;2023-01-08T07:14:39;10.10;99.90
21722;DHT22;11023;48.274;7.794;2023-01-08T07:17:05;10.10;99.90
21722;DHT22;11023;48.274;7.794;2023-01-08T07:19:31;10.10;99.90
21722;DHT22;11023;48.274;7.794;2023-01-08T07:21:57;10.10;99.90
21722;DHT22;11023;48.274;7.794;2023-01-08T07:24:23;10.10;99.90
21722;DHT22;11023;48.274;7.794;2023-01-08T07:26:48;10.10;99.90
21722;DHT22;11023;48.274;7.794;2023-01-08T07:29:15;10.00;99.90
21722;DHT22;11023;48.274;7.794;2023-01-08T07:31:41;10.00;99.90
21722;DHT22;11023;48.274;7.794;2023-01-08T07:34:06;9.90;99.90
21722;DHT22;11023;48.274;7.794;2023-01-08T07:36:32;10.00;99.90
21722;DHT22;11023;48.274;7.794;2023-01-08T07:38:58;10.00;99.90
21722;DHT22;11023;48.274;7.794;2023-01-08T07:41:25;10.00;99.90
21722;DHT22;11023;48.274;7.794;2023-01-08T07:43:50;10.00;99.90
21722;DHT22;11023;48.274;7.794;2023-01-08T07:46:19;10.00;99.90
21722;DHT22;11023;48.274;7.794;2023-01-08T07:48:45;10.00;99.90
21722;DHT22;11023;48.274;7.794;2023-01-08T07:51:10;10.00;99.90
21722;DHT22;11023;48.274;7.794;2023-01-08T07:53:36;10.00;99.90
21722;DHT22;11023;48.274;7.794;2023-01-08T07:56:04;10.10;99.90
21722;DHT22;11023;48.274;7.794;2023-01-08T07:58:30;10.10;99.90
21722;DHT22;11023;48.274;7.794;2023-01-08T08:00:57;10.00;99.90
21722;DHT22;11023;48.274;7.794;2023-01-08T08:03:23;10.00;99.90
21722;DHT22;11023;48.274;7.794;2023-01-08T08:05:49;10.10;99.90
21722;DHT22;11023;48.274;7.794;2023-01-08T08:08:16;10.00;99.90
21722;DHT22;11023;48.274;7.794;2023-01-08T08:10:43;10.00;99.90
21722;DHT22;11023;48.274;7.794;2023-01-08T08:13:09;10.10;99.90
21722;DHT22;11023;48.274;7.794;2023-01-08T08:15:36;10.20;99.90
21722;DHT22;11023;48.274;7.794;2023-01-08T08:18:03;10.20;99.90
21722;DHT22;11023;48.274;7.794;2023-01-08T08:20:29;10.20;99.90
21722;DHT22;11023;48.274;7.794;2023-01-08T08:23:06;10.30;99.90
21722;DHT22;11023;48.274;7.794;2023-01-08T08:25:31;10.20;99.90
21722;DHT22;11023;48.274;7.794;2023-01-08T08:27:58;10.30;99.90
21722;DHT22;11023;48.274;7.794;2023-01-08T08:30:30;10.30;99.90
21722;DHT22;11023;48.274;7.794;2023-01-08T08:33:01;10.40;99.90
21722;DHT22;11023;48.274;7.794;2023-01-08T08:35:28;10.40;99.90
21722;DHT22;11023;48.274;7.794;2023-01-08T08:37:54;10.40;99.90
21722;DHT22;11023;48.274;7.794;2023-01-08T08:40:20;10.40;99.90
21722;DHT22;11023;48.274;7.794;2023-01-08T08:42:46;10.40;99.90
21722;DHT22;11023;48.274;7.794;2023-01-08T08:45:13;10.50;99.90
21722;DHT22;11023;48.274;7.794;2023-01-08T08:47:39;10.50;99.90
21722;DHT22;11023;48.274;7.794;2023-01-08T08:50:05;10.50;99.90
21722;DHT22;11023;48.274;7.794;2023-01-08T08:52:33;10.60;99.90
21722;DHT22;11023;48.274;7.794;2023-01-08T08:54:59;10.60;99.90
21722;DHT22;11023;48.274;7.794;2023-01-08T08:57:26;10.60;99.90
21722;DHT22;11023;48.274;7.794;2023-01-08T08:59:54;10.60;99.90
21722;DHT22;11023;48.274;7.794;2023-01-08T09:02:20;10.60;99.90
21722;DHT22;11023;48.274;7.794;2023-01-08T09:04:46;10.60;99.90
21722;DHT22;11023;48.274;7.794;2023-01-08T09:07:11;10.60;99.90
21722;DHT22;11023;48.274;7.794;2023-01-08T09:09:37;10.60;99.90
21722;DHT22;11023;48.274;7.794;2023-01-08T09:12:03;10.50;99.90
21722;DHT22;11023;48.274;7.794;2023-01-08T09:14:29;10.50;99.90
21722;DHT22;11023;48.274;7.794;2023-01-08T09:16:55;10.50;99.90
21722;DHT22;11023;48.274;7.794;2023-01-08T09:19:20;10.50;99.90
21722;DHT22;11023;48.274;7.794;2023-01-08T09:21:47;10.50;99.90
21722;DHT22;11023;48.274;7.794;2023-01-08T09:24:14;10.50;99.90
21722;DHT22;11023;48.274;7.794;2023-01-08T09:26:40;10.50;99.90
21722;DHT22;11023;48.274;7.794;2023-01-08T09:29:06;10.50;99.90
21722;DHT22;11023;48.274;7.794;2023-01-08T09:31:33;10.50;99.90
21722;DHT22;11023;48.274;7.794;2023-01-08T09:33:59;10.50;99.90
21722;DHT22;11023;48.274;7.794;2023-01-08T09:36:25;10.50;99.90
21722;DHT22;11023;48.274;7.794;2023-01-08T09:38:50;10.50;99.90
21722;DHT22;11023;48.274;7.794;2023-01-08T09:41:28;10.50;99.90
21722;DHT22;11023;48.274;7.794;2023-01-08T09:43:55;10.50;99.90
21722;DHT22;11023;48.274;7.794;2023-01-08T09:46:23;10.50;99.90
21722;DHT22;11023;48.274;7.794;2023-01-08T09:48:51;10.50;99.90
21722;DHT22;11023;48.274;7.794;2023-01-08T09:51:18;10.50;99.90
21722;DHT22;11023;48.274;7.794;2023-01-08T09:53:45;10.50;99.90
21722;DHT22;11023;48.274;7.794;2023-01-08T09:56:16;10.50;99.90
21722;DHT22;11023;48.274;7.794;2023-01-08T09:58:50;10.50;99.90
21722;DHT22;11023;48.274;7.794;2023-01-08T10:01:21;10.50;99.90
21722;DHT22;11023;48.274;7.794;2023-01-08T10:03:54;10.40;99.90
21722;DHT22;11023;48.274;7.794;2023-01-08T10:06:22;10.40;99.90
21722;DHT22;11023;48.274;7.794;2023-01-08T10:08:49;10.40;99.90
21722;DHT22;11023;48.274;7.794;2023-01-08T10:11:14;10.40;99.90
21722;DHT22;11023;48.274;7.794;2023-01-08T10:13:51;10.40;99.90
21722;DHT22;11023;48.274;7.794;2023-01-08T10:16:32;10.40;99.90
21722;DHT22;11023;48.274;7.794;2023-01-08T10:19:03;10.40;99.90
21722;DHT22;11023;48.274;7.794;2023-01-08T10:21:31;10.40;99.90
21722;DHT22;11023;48.274;7.794;2023-01-08T10:24:00;10.40;99.90
21722;DHT22;11023;48.274;7.794;2023-01-08T10:26:31;10.40;99.90
21722;DHT22;11023;48.274;7.794;2023-01-08T10:29:18;10.40;99.90
21722;DHT22;11023;48.274;7.794;2023-01-08T10:31:53;10.40;99.90
21722;DHT22;11023;48.274;7.794;2023-01-08T10:34:30;10.40;99.90
21722;DHT22;11023;48.274;7.794;2023-01-08T10:36:57;10.40;99.90
21722;DHT22;11023;48.274;7.794;2023-01-08T10:39:26;10.40;99.90
21722;DHT22;11023;48.274;7.794;2023-01-08T10:41:55;10.40;99.90
21722;DHT22;11023;48.274;7.794;2023-01-08T10:44:23;10.40;99.90
21722;DHT22;11023;48.274;7.794;2023-01-08T10:46:56;10.40;99.90
21722;DHT22;11023;48.274;7.794;2023-01-08T10:49:35;10.50;99.90
21722;DHT22;11023;48.274;7.794;2023-01-08T10:52:03;10.50;99.90
21722;DHT22;11023;48.274;7.794;2023-01-08T10:54:38;10.60;99.90
21722;DHT22;11023;48.274;7.794;2023-01-08T10:57:27;10.60;99.90
21722;DHT22;11023;48.274;7.794;2023-01-08T10:59:54;10.60;99.90
21722;DHT22;11023;48.274;7.794;2023-01-08T11:02:39;10.60;99.90
21722;DHT22;11023;48.274;7.794;2023-01-08T11:05:06;10.60;99.90
21722;DHT22;11023;48.274;7.794;2023-01-08T11:07:33;10.70;99.90
21722;DHT22;11023;48.274;7.794;2023-01-08T11:10:00;10.70;99.90
21722;DHT22;11023;48.274;7.794;2023-01-08T11:12:36;10.70;99.90
21722;DHT22;11023;48.274;7.794;2023-01-08T11:17:44;10.80;99.90
21722;DHT22;11023;48.274;7.794;2023-01-08T11:20:27;10.90;99.90
21722;DHT22;11023;48.274;7.794;2023-01-08T11:26:09;10.90;99.90
21722;DHT22;11023;48.274;7.794;2023-01-08T11:29:29;11.00;99.90
21722;DHT22;11023;48.274;7.794;2023-01-08T11:31:54;11.00;99.90
21722;DHT22;11023;48.274;7.794;2023-01-08T11:34:30;11.10;99.90
21722;DHT22;11023;48.274;7.794;2023-01-08T11:37:13;11.10;99.90
21722;DHT22;11023;48.274;7.794;2023-01-08T11:39:44;11.10;99.90
21722;DHT22;11023;48.274;7.794;2023-01-08T11:42:17;11.10;99.90
21722;DHT22;11023;48.274;7.794;2023-01-08T11:48:03;11.20;99.90
21722;DHT22;11023;48.274;7.794;2023-01-08T11:50:26;11.20;99.90
21722;DHT22;11023;48.274;7.794;2023-01-08T12:01:10;11.20;99.90
21722;DHT22;11023;48.274;7.794;2023-01-08T12:03:46;11.20;99.90
21722;DHT22;11023;48.274;7.794;2023-01-08T12:06:35;11.20;99.90
21722;DHT22;11023;48.274;7.794;2023-01-08T12:15:15;11.30;99.90
21722;DHT22;11023;48.274;7.794;2023-01-08T12:21:17;11.40;99.90
21722;DHT22;11023;48.274;7.794;2023-01-08T12:26:17;11.50;99.90
21722;DHT22;11023;48.274;7.794;2023-01-08T12:32:05;11.50;99.90
21722;DHT22;11023;48.274;7.794;2023-01-08T12:37:26;11.50;99.90
21722;DHT22;11023;48.274;7.794;2023-01-08T12:42:33;11.50;99.90
21722;DHT22;11023;48.274;7.794;2023-01-08T12:45:00;11.60;99.90
21722;DHT22;11023;48.274;7.794;2023-01-08T12:47:30;11.60;99.90
21722;DHT22;11023;48.274;7.794;2023-01-08T12:50:20;11.60;99.90
21722;DHT22;11023;48.274;7.794;2023-01-08T12:53:03;11.60;99.90
21722;DHT22;11023;48.274;7.794;2023-01-08T12:56:01;11.60;99.90
21722;DHT22;11023;48.274;7.794;2023-01-08T13:03:53;11.50;99.90
21722;DHT22;11023;48.274;7.794;2023-01-08T13:06:20;11.40;99.90
21722;DHT22;11023;48.274;7.794;2023-01-08T13:08:54;11.40;99.90
21722;DHT22;11023;48.274;7.794;2023-01-08T13:11:38;11.50;99.90
21722;DHT22;11023;48.274;7.794;2023-01-08T13:14:11;11.50;99.90
21722;DHT22;11023;48.274;7.794;2023-01-08T13:16:39;11.50;99.90
21722;DHT22;11023;48.274;7.794;2023-01-08T13:19:25;11.60;99.90
21722;DHT22;11023;48.274;7.794;2023-01-08T13:21:54;11.60;99.90
21722;DHT22;11023;48.274;7.794;2023-01-08T13:26:56;11.70;99.90
21722;DHT22;11023;48.274;7.794;2023-01-08T13:29:40;11.70;99.90
21722;DHT22;11023;48.274;7.794;2023-01-08T13:37:44;11.60;99.90
21722;DHT22;11023;48.274;7.794;2023-01-08T13:43:28;11.60;99.90
21722;DHT22;11023;48.274;7.794;2023-01-08T13:48:28;11.60;99.90
21722;DHT22;11023;48.274;7.794;2023-01-08T13:50:55;11.50;99.90
21722;DHT22;11023;48.274;7.794;2023-01-08T13:53:22;11.50;99.90
21722;DHT22;11023;48.274;7.794;2023-01-08T13:56:04;11.60;99.90
21722;DHT22;11023;48.274;7.794;2023-01-08T13:58:54;11.50;99.90
21722;DHT22;11023;48.274;7.794;2023-01-08T14:01:21;11.50;99.90
21722;DHT22;11023;48.274;7.794;2023-01-08T14:03:47;11.60;99.90
21722;DHT22;11023;48.274;7.794;2023-01-08T14:06:26;11.60;99.90
21722;DHT22;11023;48.274;7.794;2023-01-08T14:09:00;11.60;99.90
21722;DHT22;11023;48.274;7.794;2023-01-08T14:11:42;11.60;99.90
21722;DHT22;11023;48.274;7.794;2023-01-08T14:14:14;11.50;99.90
21722;DHT22;11023;48.274;7.794;2023-01-08T14:16:42;11.50;99.90
21722;DHT22;11023;48.274;7.794;2023-01-08T14:19:13;11.50;99.90
21722;DHT22;11023;48.274;7.794;2023-01-08T14:21:45;11.40;99.90
21722;DHT22;11023;48.274;7.794;2023-01-08T14:24:15;11.40;99.90
21722;DHT22;11023;48.274;7.794;2023-01-08T14:26:41;11.30;99.90
21722;DHT22;11023;48.274;7.794;2023-01-08T14:29:14;11.30;99.90
21722;DHT22;11023;48.274;7.794;2023-01-08T14:31:48;11.30;99.90
21722;DHT22;11023;48.274;7.794;2023-01-08T14:34:16;11.30;99.90
21722;DHT22;11023;48.274;7.794;2023-01-08T14:36:42;11.20;99.90
21722;DHT22;11023;48.274;7.794;2023-01-08T14:39:18;11.20;99.90
21722;DHT22;11023;48.274;7.794;2023-01-08T14:41:46;11.30;99.90
21722;DHT22;11023;48.274;7.794;2023-01-08T14:44:32;11.20;99.90
21722;DHT22;11023;48.274;7.794;2023-01-08T14:46:57;11.10;99.90
21722;DHT22;11023;48.274;7.794;2023-01-08T14:49:27;11.10;99.90
21722;DHT22;11023;48.274;7.794;2023-01-08T14:51:55;11.10;99.90
21722;DHT22;11023;48.274;7.794;2023-01-08T14:54:31;11.10;99.90
21722;DHT22;11023;48.274;7.794;2023-01-08T14:56:59;11.10;99.90
21722;DHT22;11023;48.274;7.794;2023-01-08T14:59:31;11.10;99.90
21722;DHT22;11023;48.274;7.794;2023-01-08T15:02:00;11.10;99.90
21722;DHT22;11023;48.274;7.794;2023-01-08T15:04:28;11.10;99.90
21722;DHT22;11023;48.274;7.794;2023-01-08T15:07:24;11.00;99.90
21722;DHT22;11023;48.274;7.794;2023-01-08T15:09:55;11.10;99.90
21722;DHT22;11023;48.274;7.794;2023-01-08T15:12:29;11.00;99.90
21722;DHT22;11023;48.274;7.794;2023-01-08T15:14:55;11.00;99.90
21722;DHT22;11023;48.274;7.794;2023-01-08T15:17:24;11.00;99.90
21722;DHT22;11023;48.274;7.794;2023-01-08T15:19:57;10.90;99.90
21722;DHT22;11023;48.274;7.794;2023-01-08T15:22:28;10.90;99.90
21722;DHT22;11023;48.274;7.794;2023-01-08T15:25:04;10.80;99.90
21722;DHT22;11023;48.274;7.794;2023-01-08T15:27:30;10.80;99.90
21722;DHT22;11023;48.274;7.794;2023-01-08T15:29:56;10.70;99.90
21722;DHT22;11023;48.274;7.794;2023-01-08T15:32:31;10.70;99.90
21722;DHT22;11023;48.274;7.794;2023-01-08T15:34:59;10.60;99.90
21722;DHT22;11023;48.274;7.794;2023-01-08T15:37:26;10.60;99.90
21722;DHT22;11023;48.274;7.794;2023-01-08T15:39:52;10.50;99.90
21722;DHT22;11023;48.274;7.794;2023-01-08T15:42:23;10.40;99.90
21722;DHT22;11023;48.274;7.794;2023-01-08T15:45:15;10.30;99.90
21722;DHT22;11023;48.274;7.794;2023-01-08T15:47:41;10.20;99.90
21722;DHT22;11023;48.274;7.794;2023-01-08T15:50:07;10.20;99.90
21722;DHT22;11023;48.274;7.794;2023-01-08T15:52:35;10.20;99.90
21722;DHT22;11023;48.274;7.794;2023-01-08T15:55:01;10.20;99.90
21722;DHT22;11023;48.274;7.794;2023-01-08T15:57:28;10.30;99.90
21722;DHT22;11023;48.274;7.794;2023-01-08T15:59:56;10.30;99.90
21722;DHT22;11023;48.274;7.794;2023-01-08T16:02:22;10.30;99.90
21722;DHT22;11023;48.274;7.794;2023-01-08T16:04:52;10.20;99.90
21722;DHT22;11023;48.274;7.794;2023-01-08T16:07:18;10.20;99.90
21722;DHT22;11023;48.274;7.794;2023-01-08T16:09:44;10.20;99.90
21722;DHT22;11023;48.274;7.794;2023-01-08T16:12:09;10.20;99.90
21722;DHT22;11023;48.274;7.794;2023-01-08T16:14:35;10.10;99.90
21722;DHT22;11023;48.274;7.794;2023-01-08T16:17:06;10.00;99.90
21722;DHT22;11023;48.274;7.794;2023-01-08T16:19:33;10.00;99.90
21722;DHT22;11023;48.274;7.794;2023-01-08T16:21:59;9.90;99.90
21722;DHT22;11023;48.274;7.794;2023-01-08T16:24:25;9.90;99.90
21722;DHT22;11023;48.274;7.794;2023-01-08T16:26:51;9.80;99.90
21722;DHT22;11023;48.274;7.794;2023-01-08T16:29:17;9.80;99.90
21722;DHT22;11023;48.274;7.794;2023-01-08T16:31:46;9.70;99.90
21722;DHT22;11023;48.274;7.794;2023-01-08T16:34:13;9.70;99.90
21722;DHT22;11023;48.274;7.794;2023-01-08T16:36:39;9.70;99.90
21722;DHT22;11023;48.274;7.794;2023-01-08T16:39:05;9.70;99.90
21722;DHT22;11023;48.274;7.794;2023-01-08T16:41:31;9.60;99.90
21722;DHT22;11023;48.274;7.794;2023-01-08T16:43:56;9.70;99.90
21722;DHT22;11023;48.274;7.794;2023-01-08T16:46:22;9.70;99.90
21722;DHT22;11023;48.274;7.794;2023-01-08T16:48:48;9.70;99.90
21722;DHT22;11023;48.274;7.794;2023-01-08T16:51:15;9.70;99.90
21722;DHT22;11023;48.274;7.794;2023-01-08T16:53:41;9.60;99.90
21722;DHT22;11023;48.274;7.794;2023-01-08T16:56:07;9.60;99.90
21722;DHT22;11023;48.274;7.794;2023-01-08T16:58:34;9.50;99.90
21722;DHT22;11023;48.274;7.794;2023-01-08T17:01:00;9.50;99.90